createdAt,value
2023-03-02T00:01:41.099Z,62.69
2023-03-02T00:04:15.453Z,63.08
2023-03-02T00:06:43.552Z,62.96
2023-03-02T00:09:11.488Z,62.92
2023-03-02T00:11:39.656Z,63.21
2023-03-02T00:14:07.549Z,62.64
2023-03-02T00:16:35.529Z,62.78
2023-03-02T00:19:03.484Z,62.45
2023-03-02T00:21:32.833Z,62.54
2023-03-02T00:24:00.720Z,62.52
2023-03-02T00:26:28.571Z,62.50
2023-03-02T00:28:57.027Z,62.64
2023-03-02T00:31:24.956Z,62.67
2023-03-02T00:33:54.210Z,62.58
2023-03-02T00:36:24.302Z,62.11
2023-03-02T00:38:53.907Z,62.33
2023-03-02T00:41:22.467Z,62.54
2023-03-02T00:43:51.566Z,62.79
2023-03-02T00:46:22.255Z,62.25
2023-03-02T00:48:50.562Z,62.52
2023-03-02T00:51:18.965Z,63.00
2023-03-02T00:53:46.958Z,63.51
2023-03-02T00:56:16.227Z,63.69
2023-03-02T00:58:49.106Z,64.50
2023-03-02T01:01:18.671Z,64.87
2023-03-02T01:03:50.052Z,64.68
2023-03-02T01:06:20.628Z,64.67
2023-03-02T01:08:49.087Z,64.83
2023-03-02T01:11:21.031Z,64.92
2023-03-02T01:13:50.181Z,65.14
2023-03-02T01:16:18.264Z,65.08
2023-03-02T01:18:46.206Z,65.13
2023-03-02T01:21:16.575Z,64.92
2023-03-02T01:23:44.659Z,64.98
2023-03-02T01:26:12.764Z,64.73
2023-03-02T01:28:41.981Z,64.76
2023-03-02T01:31:09.930Z,64.63
2023-03-02T01:33:37.878Z,64.46
2023-03-02T01:36:06.451Z,64.88
2023-03-02T01:38:34.418Z,64.95
2023-03-02T01:41:02.260Z,65.35
2023-03-02T01:43:30.214Z,65.80
2023-03-02T01:46:04.110Z,65.93
2023-03-02T01:48:45.765Z,66.12
2023-03-02T01:51:17.451Z,66.46
2023-03-02T01:53:49.357Z,66.50
2023-03-02T01:56:21.493Z,66.29
2023-03-02T01:58:51.580Z,66.19
2023-03-02T02:01:21.148Z,67.17
2023-03-02T02:03:51.819Z,66.42
2023-03-02T02:06:25.002Z,66.37
2023-03-02T02:08:55.346Z,65.67
2023-03-02T02:11:23.250Z,65.47
2023-03-02T02:13:55.990Z,65.41
2023-03-02T02:16:26.256Z,64.65
2023-03-02T02:18:54.270Z,63.95
2023-03-02T02:21:23.185Z,64.37
2023-03-02T02:24:08.790Z,63.84
2023-03-02T02:26:43.570Z,64.02
2023-03-02T02:29:15.734Z,63.58
2023-03-02T02:31:47.937Z,63.60
2023-03-02T02:34:22.468Z,63.43
2023-03-02T02:36:56.325Z,63.14
2023-03-02T02:39:29.996Z,62.97
2023-03-02T02:42:03.038Z,63.16
2023-03-02T02:44:32.821Z,62.91
2023-03-02T02:47:01.349Z,63.45
2023-03-02T02:49:33.368Z,63.17
2023-03-02T02:52:01.304Z,63.79
2023-03-02T02:54:30.999Z,63.38
2023-03-02T02:57:02.503Z,63.42
2023-03-02T02:59:36.374Z,62.81
2023-03-02T03:02:04.532Z,63.38
2023-03-02T03:04:33.602Z,63.02
2023-03-02T03:07:04.221Z,64.02
2023-03-02T03:09:33.425Z,63.93
2023-03-02T03:12:08.147Z,63.88
2023-03-02T03:14:39.332Z,64.08
2023-03-02T03:17:12.164Z,63.88
2023-03-02T03:19:46.104Z,63.56
2023-03-02T03:22:15.388Z,63.17
2023-03-02T03:24:45.974Z,63.76
2023-03-02T03:27:17.706Z,63.39
2023-03-02T03:29:48.815Z,63.81
2023-03-02T03:32:19.259Z,63.35
2023-03-02T03:34:48.042Z,63.58
2023-03-02T03:37:32.338Z,63.51
2023-03-02T03:40:00.996Z,63.47
2023-03-02T03:42:32.279Z,64.20
2023-03-02T03:45:01.079Z,63.63
2023-03-02T03:47:29.164Z,63.87
2023-03-02T03:49:57.154Z,63.35
2023-03-02T03:52:30.716Z,63.10
2023-03-02T03:55:07.347Z,63.41
2023-03-02T03:57:37.300Z,63.05
2023-03-02T04:00:08.931Z,62.70
2023-03-02T04:02:42.660Z,62.99
2023-03-02T04:05:13.176Z,63.24
2023-03-02T04:07:41.882Z,63.38
2023-03-02T04:10:12.260Z,62.78
2023-03-02T04:12:43.430Z,63.53
2023-03-02T04:15:15.635Z,63.10
2023-03-02T04:17:45.881Z,63.29
2023-03-02T04:20:16.925Z,62.94
2023-03-02T04:22:50.482Z,63.37
2023-03-02T04:25:22.126Z,63.52
2023-03-02T04:27:54.790Z,63.96
2023-03-02T04:30:26.716Z,63.86
2023-03-02T04:32:57.444Z,63.29
2023-03-02T04:35:27.145Z,63.27
2023-03-02T04:37:55.087Z,63.13
2023-03-02T04:40:23.144Z,63.44
2023-03-02T04:42:51.010Z,63.22
2023-03-02T04:45:20.700Z,63.79
2023-03-02T04:47:48.538Z,63.79
2023-03-02T04:50:16.845Z,63.98
2023-03-02T04:52:44.689Z,63.74
2023-03-02T04:55:19.146Z,64.01
2023-03-02T04:57:47.034Z,63.93
2023-03-02T05:00:16.978Z,64.00
2023-03-02T05:02:46.811Z,64.24
2023-03-02T05:05:17.814Z,64.47
2023-03-02T05:07:45.844Z,65.03
2023-03-02T05:10:14.697Z,64.48
2023-03-02T05:12:57.992Z,64.57
2023-03-02T05:15:28.128Z,64.90
2023-03-02T05:17:58.101Z,64.93
2023-03-02T05:20:30.286Z,64.92
2023-03-02T05:23:01.426Z,64.63
2023-03-02T05:25:31.905Z,64.97
2023-03-02T05:28:00.012Z,65.14
2023-03-02T05:30:28.230Z,65.20
2023-03-02T05:32:57.563Z,64.71
2023-03-02T05:35:25.683Z,65.51
2023-03-02T05:37:53.674Z,64.76
2023-03-02T05:40:22.076Z,64.93
2023-03-02T05:42:50.694Z,64.80
2023-03-02T05:45:21.669Z,64.60
2023-03-02T05:47:49.645Z,64.33
2023-03-02T05:50:19.120Z,64.03
2023-03-02T05:52:47.040Z,64.32
2023-03-02T05:55:16.430Z,64.28
2023-03-02T05:57:44.923Z,63.77
2023-03-02T06:00:14.778Z,63.75
2023-03-02T06:02:42.757Z,63.10
2023-03-02T06:05:12.674Z,63.31
2023-03-02T06:07:42.070Z,63.19
2023-03-02T06:10:12.302Z,62.81
2023-03-02T06:12:40.712Z,62.83
2023-03-02T06:15:10.459Z,63.37
2023-03-02T06:17:38.345Z,62.95
2023-03-02T06:20:11.230Z,63.11
2023-03-02T06:22:41.175Z,63.02
2023-03-02T06:25:12.607Z,63.29
2023-03-02T06:27:41.239Z,62.79
2023-03-02T06:30:12.009Z,63.46
2023-03-02T06:32:40.039Z,62.89
2023-03-02T06:35:09.462Z,63.13
2023-03-02T06:37:37.716Z,63.02
2023-03-02T06:40:10.295Z,62.22
2023-03-02T06:42:40.326Z,61.79
2023-03-02T06:45:09.922Z,61.76
2023-03-02T06:47:37.909Z,62.47
2023-03-02T06:50:07.408Z,62.72
2023-03-02T06:52:36.027Z,62.99
2023-03-02T06:55:04.127Z,63.22
2023-03-02T06:57:34.201Z,62.38
2023-03-02T07:00:09.441Z,63.09
2023-03-02T07:02:37.478Z,62.98
2023-03-02T07:05:06.354Z,63.02
2023-03-02T07:07:34.309Z,63.39
2023-03-02T07:10:02.205Z,63.13
2023-03-02T07:12:30.044Z,63.45
2023-03-02T07:14:57.934Z,63.48
2023-03-02T07:17:27.242Z,63.56
2023-03-02T07:19:55.041Z,63.39
2023-03-02T07:22:23.315Z,62.83
2023-03-02T07:24:51.161Z,62.46
2023-03-02T07:27:19.061Z,62.02
2023-03-02T07:29:46.983Z,62.13
2023-03-02T07:32:14.983Z,62.01
2023-03-02T07:34:44.258Z,61.25
2023-03-02T07:37:12.172Z,61.06
2023-03-02T07:39:40.088Z,60.60
2023-03-02T07:42:09.058Z,60.32
2023-03-02T07:44:36.993Z,60.82
2023-03-02T07:47:05.193Z,61.04
2023-03-02T07:49:35.242Z,60.67
2023-03-02T07:52:04.971Z,60.54
2023-03-02T07:54:32.823Z,60.07
2023-03-02T07:57:01.015Z,60.00
2023-03-02T07:59:29.520Z,59.79
2023-03-02T08:01:58.424Z,59.48
2023-03-02T08:04:26.686Z,59.43
2023-03-02T08:06:54.569Z,59.19
2023-03-02T08:09:23.829Z,59.47
2023-03-02T08:11:51.694Z,59.29
2023-03-02T08:14:19.629Z,59.52
2023-03-02T08:16:47.791Z,59.07
2023-03-02T08:19:15.636Z,59.65
2023-03-02T08:21:43.530Z,59.41
2023-03-02T08:24:12.396Z,58.94
2023-03-02T08:26:41.582Z,58.91
2023-03-02T08:29:09.437Z,58.94
2023-03-02T08:31:37.414Z,58.28
2023-03-02T08:34:05.853Z,58.14
2023-03-02T08:36:34.048Z,58.33
2023-03-02T08:39:02.213Z,58.13
2023-03-02T08:41:30.685Z,57.58
2023-03-02T08:44:00.279Z,57.75
2023-03-02T08:46:28.406Z,57.47
2023-03-02T08:48:56.347Z,57.04
2023-03-02T08:51:26.483Z,57.28
2023-03-02T08:53:56.571Z,57.04
2023-03-02T08:56:26.374Z,55.61
2023-03-02T08:58:56.600Z,56.42
2023-03-02T09:01:28.670Z,56.24
2023-03-02T09:03:57.577Z,56.34
2023-03-02T09:06:25.568Z,55.95
2023-03-02T09:08:53.491Z,55.89
2023-03-02T09:11:21.351Z,55.30
2023-03-02T09:13:49.490Z,55.00
2023-03-02T09:16:20.545Z,55.10
2023-03-02T09:18:49.904Z,56.14
2023-03-02T09:21:17.859Z,55.71
2023-03-02T09:23:45.973Z,55.31
2023-03-02T09:26:13.943Z,55.02
2023-03-02T09:28:41.891Z,54.75
2023-03-02T09:31:10.079Z,55.45
2023-03-02T09:33:38.123Z,54.47
2023-03-02T09:36:13.432Z,54.70
2023-03-02T09:38:41.433Z,54.00
2023-03-02T09:41:35.747Z,54.24
2023-03-02T09:44:21.235Z,53.85
2023-03-02T09:46:52.637Z,54.08
2023-03-02T09:49:30.981Z,54.33
2023-03-02T09:52:12.321Z,54.46
2023-03-02T09:54:41.979Z,55.14
2023-03-02T09:57:22.294Z,54.80
2023-03-02T09:59:55.184Z,54.25
2023-03-02T10:02:28.265Z,54.25
2023-03-02T10:04:58.452Z,53.85
2023-03-02T10:07:30.209Z,54.34
2023-03-02T10:10:14.728Z,53.75
2023-03-02T10:12:52.796Z,53.98
2023-03-02T10:15:27.130Z,54.19
2023-03-02T10:18:02.009Z,53.71
2023-03-02T10:20:35.831Z,52.67
2023-03-02T10:23:17.500Z,52.09
2023-03-02T10:25:51.844Z,52.52
2023-03-02T10:28:22.105Z,52.27
2023-03-02T10:30:54.850Z,51.85
2023-03-02T10:33:23.250Z,51.25
2023-03-02T10:35:53.591Z,50.25
2023-03-02T10:38:24.717Z,50.42
2023-03-02T10:41:00.062Z,49.69
2023-03-02T10:43:32.781Z,49.32
2023-03-02T10:46:02.881Z,48.63
2023-03-02T10:48:30.995Z,48.57
2023-03-02T10:51:00.350Z,48.44
2023-03-02T10:53:30.003Z,47.76
2023-03-02T10:55:57.906Z,48.61
2023-03-02T10:58:30.308Z,48.32
2023-03-02T11:01:03.044Z,48.28
2023-03-02T11:03:32.164Z,47.43
2023-03-02T11:06:12.525Z,48.02
2023-03-02T11:08:41.798Z,47.17
2023-03-02T11:11:23.026Z,46.82
2023-03-02T11:13:51.083Z,46.75
2023-03-02T11:16:26.220Z,46.68
2023-03-02T11:18:58.530Z,45.94
2023-03-02T11:21:32.239Z,46.34
2023-03-02T11:24:10.783Z,45.77
2023-03-02T11:26:42.532Z,46.55
2023-03-02T11:29:22.826Z,46.68
2023-03-02T11:31:53.392Z,46.23
2023-03-02T11:34:29.057Z,46.29
2023-03-02T11:37:07.076Z,45.70
2023-03-02T11:39:56.061Z,45.88
2023-03-02T11:42:29.608Z,45.30
2023-03-02T11:44:58.126Z,45.57
2023-03-02T11:47:26.231Z,45.74
2023-03-02T11:49:57.028Z,45.81
2023-03-02T11:52:28.466Z,45.66
2023-03-02T11:55:04.204Z,45.53
2023-03-02T11:57:37.483Z,44.96
2023-03-02T12:00:16.498Z,44.95
2023-03-02T12:02:45.539Z,45.41
2023-03-02T12:05:25.761Z,44.77
2023-03-02T12:08:00.188Z,44.78
2023-03-02T12:10:35.679Z,44.27
2023-03-02T12:13:19.262Z,44.69
2023-03-02T12:15:48.408Z,44.92
2023-03-02T12:18:32.196Z,44.56
2023-03-02T12:21:02.186Z,44.90
2023-03-02T12:23:31.103Z,44.90
2023-03-02T12:26:07.566Z,44.65
2023-03-02T12:28:37.337Z,43.94
2023-03-02T12:31:09.566Z,43.85
2023-03-02T12:33:47.284Z,43.78
2023-03-02T12:36:19.440Z,43.77
2023-03-02T12:38:58.591Z,43.51
2023-03-02T12:41:40.121Z,43.24
2023-03-02T12:44:27.925Z,42.86
2023-03-02T12:46:56.889Z,42.76
2023-03-02T12:49:42.935Z,41.90
2023-03-02T12:52:24.140Z,41.49
2023-03-02T12:55:05.377Z,41.59
2023-03-02T12:57:37.847Z,40.96
2023-03-02T13:00:16.577Z,40.44
2023-03-02T13:02:48.304Z,40.20
2023-03-02T13:05:20.336Z,40.19
2023-03-02T13:07:56.555Z,39.87
2023-03-02T13:10:30.264Z,40.11
2023-03-02T13:13:00.447Z,39.89
2023-03-02T13:15:28.326Z,38.65
2023-03-02T13:17:58.568Z,38.24
2023-03-02T13:20:28.931Z,38.68
2023-03-02T13:22:57.136Z,38.21
2023-03-02T13:25:27.934Z,38.19
2023-03-02T13:27:57.274Z,39.10
2023-03-02T13:30:29.551Z,39.31
2023-03-02T13:33:03.134Z,38.67
2023-03-02T13:35:32.648Z,39.13
2023-03-02T13:38:04.520Z,38.86
2023-03-02T13:40:38.969Z,38.97
2023-03-02T13:43:24.667Z,38.50
2023-03-02T13:45:55.982Z,38.45
2023-03-02T13:48:24.823Z,38.50
2023-03-02T13:50:55.886Z,38.64
2023-03-02T13:53:24.378Z,37.94
2023-03-02T13:55:54.064Z,37.22
2023-03-02T13:58:23.846Z,37.83
2023-03-02T14:00:52.631Z,37.23
2023-03-02T14:03:26.286Z,37.56
2023-03-02T14:05:54.910Z,37.46
2023-03-02T14:08:23.374Z,37.38
2023-03-02T14:10:53.738Z,37.41
2023-03-02T14:13:25.002Z,37.49
2023-03-02T14:15:54.950Z,37.18
2023-03-02T14:18:32.087Z,37.43
2023-03-02T14:21:00.020Z,37.43
2023-03-02T14:23:29.124Z,37.39
2023-03-02T14:25:58.334Z,36.99
2023-03-02T14:28:31.179Z,37.07
2023-03-02T14:31:00.644Z,36.94
2023-03-02T14:33:30.125Z,36.72
2023-03-02T14:35:59.760Z,36.12
2023-03-02T14:38:28.783Z,35.67
2023-03-02T14:40:57.385Z,35.49
2023-03-02T14:43:25.553Z,35.85
2023-03-02T14:45:53.525Z,36.03
2023-03-02T14:48:21.568Z,35.65
2023-03-02T14:50:52.405Z,35.44
2023-03-02T14:53:24.053Z,35.20
2023-03-02T14:55:52.040Z,34.92
2023-03-02T14:58:21.578Z,34.99
2023-03-02T15:00:49.459Z,35.20
2023-03-02T15:03:22.603Z,35.15
2023-03-02T15:06:00.811Z,34.90
2023-03-02T15:08:29.828Z,34.45
2023-03-02T15:10:58.043Z,34.20
2023-03-02T15:13:25.991Z,33.91
2023-03-02T15:15:53.851Z,34.12
2023-03-02T15:18:21.755Z,34.15
2023-03-02T15:20:49.748Z,34.21
2023-03-02T15:23:19.078Z,34.24
2023-03-02T15:25:46.941Z,34.59
2023-03-02T15:28:14.886Z,34.41
2023-03-02T15:30:42.753Z,34.32
2023-03-02T15:33:10.733Z,34.12
2023-03-02T15:35:39.808Z,34.47
2023-03-02T15:38:07.854Z,34.88
2023-03-02T15:40:37.146Z,35.24
2023-03-02T15:43:05.022Z,35.37
2023-03-02T15:45:32.932Z,35.70
2023-03-02T15:48:00.793Z,35.96
2023-03-02T15:50:28.707Z,36.21
2023-03-02T15:52:57.484Z,36.06
2023-03-02T15:55:25.363Z,36.06
2023-03-02T15:57:57.949Z,35.87
2023-03-02T16:00:25.958Z,36.23
2023-03-02T16:02:53.901Z,36.71
2023-03-02T16:05:21.803Z,36.40
2023-03-02T16:07:49.652Z,36.76
2023-03-02T16:10:19.678Z,37.45
2023-03-02T16:12:47.609Z,37.78
2023-03-02T16:15:17.126Z,37.87
2023-03-02T16:17:45.446Z,38.24
2023-03-02T16:20:13.884Z,38.95
2023-03-02T16:22:41.745Z,38.49
2023-03-02T16:25:10.297Z,39.28
2023-03-02T16:27:38.319Z,39.22
2023-03-02T16:30:07.002Z,39.93
2023-03-02T16:32:36.194Z,39.53
2023-03-02T16:35:04.161Z,40.59
2023-03-02T16:37:32.118Z,40.83
2023-03-02T16:40:00.041Z,40.90
2023-03-02T16:42:30.321Z,40.80
2023-03-02T16:44:58.301Z,41.07
2023-03-02T16:47:26.358Z,41.04
2023-03-02T16:49:55.652Z,41.67
2023-03-02T16:52:23.867Z,41.92
2023-03-02T16:54:51.730Z,43.15
2023-03-02T16:57:19.679Z,43.27
2023-03-02T16:59:47.578Z,43.59
2023-03-02T17:02:16.556Z,43.74
2023-03-02T17:04:44.675Z,44.77
2023-03-02T17:07:14.012Z,44.74
2023-03-02T17:09:42.137Z,45.64
2023-03-02T17:12:10.041Z,45.74
2023-03-02T17:14:37.958Z,46.26
2023-03-02T17:17:05.915Z,46.83
2023-03-02T17:19:33.955Z,47.42
2023-03-02T17:22:02.692Z,47.54
2023-03-02T17:24:32.516Z,47.55
2023-03-02T17:27:00.398Z,47.45
2023-03-02T17:29:28.332Z,47.94
2023-03-02T17:31:56.564Z,47.58
2023-03-02T17:34:28.558Z,47.99
2023-03-02T17:36:56.536Z,47.84
2023-03-02T17:39:24.618Z,48.65
2023-03-02T17:41:53.990Z,48.43
2023-03-02T17:44:22.293Z,48.56
2023-03-02T17:46:50.205Z,49.01
2023-03-02T17:49:18.120Z,48.79
2023-03-02T17:51:46.121Z,49.48
2023-03-02T17:54:14.084Z,49.69
2023-03-02T17:56:42.327Z,49.60
2023-03-02T17:59:12.482Z,49.92
2023-03-02T18:01:40.699Z,50.13
2023-03-02T18:04:08.600Z,49.95
2023-03-02T18:06:36.854Z,49.91
2023-03-02T18:09:05.004Z,50.24
2023-03-02T18:11:33.431Z,49.93
2023-03-02T18:14:01.470Z,49.60
2023-03-02T18:16:30.911Z,49.60
2023-03-02T18:18:58.813Z,49.65
2023-03-02T18:21:27.007Z,50.09
2023-03-02T18:23:55.081Z,49.43
2023-03-02T18:26:22.953Z,50.30
2023-03-02T18:28:50.911Z,50.17
2023-03-02T18:31:20.657Z,49.74
2023-03-02T18:33:50.209Z,50.16
2023-03-02T18:36:18.497Z,50.00
2023-03-02T18:38:46.717Z,49.96
2023-03-02T18:41:15.258Z,50.33
2023-03-02T18:43:43.604Z,50.11
2023-03-02T18:46:19.976Z,49.64
2023-03-02T18:48:49.679Z,50.35
2023-03-02T18:51:19.430Z,50.34
2023-03-02T18:53:48.071Z,50.02
2023-03-02T18:56:16.310Z,50.40
2023-03-02T18:58:44.374Z,50.86
2023-03-02T19:01:12.778Z,50.21
2023-03-02T19:03:41.714Z,51.11
2023-03-02T19:06:10.062Z,50.96
2023-03-02T19:08:39.553Z,51.57
2023-03-02T19:11:07.858Z,51.38
2023-03-02T19:13:36.012Z,51.65
2023-03-02T19:16:04.674Z,52.13
2023-03-02T19:18:33.251Z,51.92
2023-03-02T19:21:01.319Z,52.03
2023-03-02T19:23:29.817Z,53.10
2023-03-02T19:25:59.109Z,53.36
2023-03-02T19:28:27.550Z,52.87
2023-03-02T19:30:55.538Z,52.51
2023-03-02T19:33:24.916Z,53.23
2023-03-02T19:35:53.046Z,53.30
2023-03-02T19:38:22.734Z,53.32
2023-03-02T19:40:51.185Z,53.77
2023-03-02T19:43:21.192Z,53.37
2023-03-02T19:45:49.152Z,53.79
2023-03-02T19:48:17.068Z,54.33
2023-03-02T19:50:45.468Z,53.92
2023-03-02T19:53:14.141Z,54.45
2023-03-02T19:55:42.780Z,54.21
2023-03-02T19:58:16.931Z,54.21
2023-03-02T20:00:47.243Z,53.96
2023-03-02T20:03:15.284Z,54.15
2023-03-02T20:05:43.297Z,54.69
2023-03-02T20:08:11.661Z,54.80
2023-03-02T20:10:42.541Z,54.24
2023-03-02T20:13:11.310Z,55.35
2023-03-02T20:15:41.441Z,55.47
2023-03-02T20:18:12.973Z,54.82
2023-03-02T20:20:41.196Z,55.04
2023-03-02T20:23:09.201Z,55.61
2023-03-02T20:25:37.482Z,55.49
2023-03-02T20:28:06.916Z,55.89
2023-03-02T20:30:40.722Z,56.23
2023-03-02T20:33:11.543Z,55.87
2023-03-02T20:35:42.522Z,56.45
2023-03-02T20:38:14.755Z,56.16
2023-03-02T20:40:43.213Z,55.83
2023-03-02T20:43:11.253Z,56.75
2023-03-02T20:45:39.876Z,56.23
2023-03-02T20:48:08.466Z,56.55
2023-03-02T20:50:39.344Z,56.71
2023-03-02T20:53:08.833Z,57.50
2023-03-02T20:55:36.910Z,57.19
2023-03-02T20:58:06.293Z,57.04
2023-03-02T21:00:35.800Z,56.63
2023-03-02T21:03:03.967Z,57.28
2023-03-02T21:05:35.019Z,57.12
2023-03-02T21:08:04.692Z,57.27
2023-03-02T21:10:36.352Z,57.02
2023-03-02T21:13:07.698Z,57.35
2023-03-02T21:15:36.262Z,57.40
2023-03-02T21:18:04.492Z,57.43
2023-03-02T21:20:36.720Z,57.67
2023-03-02T21:23:06.032Z,57.82
2023-03-02T21:25:34.467Z,58.07
2023-03-02T21:28:02.430Z,58.07
2023-03-02T21:30:36.079Z,58.41
2023-03-02T21:33:04.564Z,58.35
2023-03-02T21:35:32.833Z,58.72
2023-03-02T21:38:04.698Z,58.20
2023-03-02T21:40:36.093Z,58.84
2023-03-02T21:43:05.801Z,58.53
2023-03-02T21:45:34.420Z,58.71
2023-03-02T21:48:02.949Z,59.07
2023-03-02T21:50:33.081Z,58.57
2023-03-02T21:53:00.928Z,58.80
2023-03-02T21:55:29.349Z,59.15
2023-03-02T21:57:59.025Z,59.60
2023-03-02T22:00:30.787Z,59.68
2023-03-02T22:02:58.661Z,59.28
2023-03-02T22:05:27.170Z,59.26
2023-03-02T22:07:55.273Z,59.08
2023-03-02T22:10:27.797Z,58.87
2023-03-02T22:12:58.563Z,58.86
2023-03-02T22:15:28.071Z,58.49
2023-03-02T22:17:56.585Z,58.25
2023-03-02T22:20:24.705Z,58.52
2023-03-02T22:22:55.349Z,58.54
2023-03-02T22:25:23.363Z,58.97
2023-03-02T22:27:51.647Z,59.85
2023-03-02T22:30:23.336Z,60.53
2023-03-02T22:32:51.302Z,61.18
2023-03-02T22:35:23.327Z,61.25
2023-03-02T22:37:52.800Z,61.14
2023-03-02T22:40:30.256Z,60.89
2023-03-02T22:43:11.008Z,60.75
2023-03-02T22:45:41.132Z,60.68
2023-03-02T22:48:15.704Z,60.38
2023-03-02T22:50:44.934Z,60.49
2023-03-02T22:53:28.596Z,60.29
2023-03-02T22:55:59.134Z,60.20
2023-03-02T22:58:37.270Z,60.50
2023-03-02T23:01:20.936Z,60.12
2023-03-02T23:03:50.939Z,60.00
2023-03-02T23:06:28.026Z,59.85
2023-03-02T23:08:57.705Z,59.45
2023-03-02T23:11:26.419Z,59.10
2023-03-02T23:13:55.736Z,59.21
2023-03-02T23:16:27.802Z,59.38
2023-03-02T23:18:59.187Z,59.04
2023-03-02T23:21:29.213Z,59.15
2023-03-02T23:23:57.157Z,59.52
2023-03-02T23:26:25.030Z,59.41
2023-03-02T23:28:52.918Z,59.58
2023-03-02T23:31:21.157Z,59.43
2023-03-02T23:33:50.541Z,59.30
2023-03-02T23:36:21.081Z,59.09
2023-03-02T23:38:49.519Z,58.96
2023-03-02T23:41:18.347Z,58.96
2023-03-02T23:43:46.238Z,59.23
2023-03-02T23:46:14.575Z,59.10
2023-03-02T23:48:43.017Z,59.21
2023-03-02T23:51:12.268Z,59.49
2023-03-02T23:53:40.320Z,59.24
2023-03-02T23:56:08.463Z,59.44
2023-03-02T23:58:36.322Z,59.51
